Aéroport int. de Vancouver, Colombie-Britannique

Conditions des dernières 24 heures

Date / Heure
(HNP)
Conditions Temp
(°F)
Humidité
(%)
Point de rosée
(°F)
Vent
(mph)
Pression (pouces) Visibilité
(miles)
28 novembre 2014
3:00 Pluie faible 44   93 43 ONO 26 rafale 37 29.5 10
2:00 Pluie faible 47 96 46 O 16 29.5 12
1:00 Généralement nuageux 55 82 49 S 15 29.5 15
0:00 Généralement nuageux 54 86 50 SSE 19 rafale 26 29.5 15
27 novembre 2014
23:00 Généralement nuageux 54 85 50 SSE 18 rafale 25 29.5 15
22:00 Généralement nuageux 55 81 50 SSE 15 rafale 23 29.6 15
21:00 Généralement nuageux 54 86 50 SSE 15 rafale 23 29.6 15
20:00 Généralement nuageux 54 88 51 SE 19 rafale 25 29.6 15
19:00 Généralement nuageux 55 86 51 SSE 22 rafale 29 29.6 15
18:00 Généralement nuageux 55 84 50 SSE 19 rafale 27 29.6 15
17:00 Généralement nuageux 55 83 50 SE 18 rafale 24 29.6 15
16:00 Pluie faible 56 83 51 SE 14 29.6 15
15:00 Généralement nuageux 57   81 51 SE 16 rafale 22 29.6 15
14:00 Généralement nuageux 57   83 51 SSE 18 rafale 24 29.6 15
13:00 Généralement nuageux 56 85 51 SE 18 rafale 26 29.7 15
12:00 Généralement nuageux 56 86 51 SE 15 29.7 15
11:00 Généralement nuageux 55 90 52 ESE 16 29.7 15
10:00 Généralement nuageux 54 91 51 SE 22 29.7 15
9:00 Généralement nuageux 52 93 50 SE 18 rafale 25 29.7 15
8:00 Pluie faible 51 96 50 SE 16 rafale 25 29.7 15
7:00 Pluie faible 51 95 50 ESE 17 29.7 15
6:00 Généralement nuageux 53 93 51 SE 19 rafale 26 29.7 15
5:00 Généralement nuageux 53 90 51 SE 15 rafale 25 29.7 15
4:00 Généralement nuageux 54 89 51 SSE 18 rafale 24 29.7 15
3:00 Pluie faible 54 90 51 SSE 18 rafale 28 29.7 10
N.D. non disponible
↑ température la plus haute
↓ température la plus basse

Si vous désirez plus de données historiques sur les conditions météo, s.v.p. visitez Données climatologiques en ligne.

Date de modification :